Terminal Aerodrome Forecast
Issued by NWS

Home | Current Version | Previous Version | Text Only | Print | Product List | Glossary On
Versions: 1 2 3 4 5 6 7 8 9 10 11 12 13 14 15 16 17 18 19 20 21 22 23 24 25 26 27 28 29 30 31 32
000
FTUS41 KRNK 302335
TAFBCB
TAF
KBCB 302335Z 3100/3124 00000KT P6SM SCT070 SCT100 SCT250
      TEMPO 3100/3101 BKN100 BKN250
     FM310200 00000KT P6SM SCT100 SCT250
     FM310900 00000KT 5SM BR SCT250
      TEMPO 3110/3113 1 1/2SM BR
     FM311400 23004KT P6SM SCT040 SCT250
     FM311900 22004KT P6SM BKN045 BKN250=

USA.gov is the U.S. government's official web portal to all federal, state and local government web resources and services.